createdAt,value
2023-02-22T00:01:36.628Z,156.65
2023-02-22T00:04:16.169Z,139.15
2023-02-22T00:06:49.371Z,155.48
2023-02-22T00:09:20.659Z,154.43
2023-02-22T00:11:53.786Z,157.23
2023-02-22T00:14:32.457Z,160.93
2023-02-22T00:17:13.789Z,163.20
2023-02-22T00:19:46.527Z,163.80
2023-02-22T00:22:20.171Z,162.77
2023-02-22T00:24:48.386Z,165.18
2023-02-22T00:27:15.030Z,144.38
2023-02-22T00:29:58.326Z,158.48
2023-02-22T00:32:33.694Z,161.40
2023-02-22T00:35:08.412Z,159.27
2023-02-22T00:37:41.859Z,146.95
2023-02-22T00:40:31.351Z,139.88
2023-02-22T00:43:11.211Z,153.88
2023-02-22T00:45:41.686Z,156.55
2023-02-22T00:48:09.698Z,146.32
2023-02-22T00:50:46.416Z,158.10
2023-02-22T00:53:26.500Z,151.98
2023-02-22T00:55:56.161Z,171.20
2023-02-22T01:01:07.294Z,170.00
2023-02-22T01:03:35.336Z,156.88
2023-02-22T01:06:11.287Z,146.10
2023-02-22T01:08:47.383Z,166.27
2023-02-22T01:11:19.815Z,177.18
2023-02-22T01:13:49.152Z,172.25
2023-02-22T01:16:15.727Z,179.77
2023-02-22T01:18:42.297Z,175.18
2023-02-22T01:21:15.546Z,182.07
2023-02-22T01:23:45.176Z,175.52
2023-02-22T01:26:12.054Z,157.25
2023-02-22T01:28:39.379Z,186.30
2023-02-22T01:31:12.670Z,159.68
2023-02-22T01:33:42.165Z,183.13
2023-02-22T01:36:11.791Z,177.52
2023-02-22T01:38:39.217Z,197.43
2023-02-22T01:41:09.218Z,178.48
2023-02-22T01:43:35.980Z,182.35
2023-02-22T01:46:24.352Z,185.00
2023-02-22T01:48:56.265Z,177.00
2023-02-22T01:51:37.540Z,195.23
2023-02-22T01:54:12.088Z,192.55
2023-02-22T01:56:40.619Z,180.93
2023-02-22T01:59:12.717Z,182.98
2023-02-22T02:04:26.260Z,194.15
2023-02-22T02:07:06.189Z,181.73
2023-02-22T02:09:47.235Z,159.52
2023-02-22T02:12:18.806Z,201.10
2023-02-22T02:14:45.618Z,197.70
2023-02-22T02:17:37.263Z,194.25
2023-02-22T02:20:14.323Z,196.10
2023-02-22T02:23:01.015Z,172.15
2023-02-22T02:26:09.664Z,196.77
2023-02-22T02:29:05.675Z,184.73
2023-02-22T02:32:03.348Z,176.82
2023-02-22T02:34:34.556Z,191.55
2023-02-22T02:37:11.505Z,192.93
2023-02-22T02:40:06.594Z,200.23
2023-02-22T02:42:43.207Z,200.23
2023-02-22T02:45:32.100Z,195.60
2023-02-22T02:48:08.462Z,212.18
2023-02-22T02:50:46.214Z,192.50
2023-02-22T02:53:17.208Z,178.32
2023-02-22T02:55:45.651Z,191.88
2023-02-22T02:58:27.105Z,197.43
2023-02-22T03:00:59.073Z,207.32
2023-02-22T03:06:30.501Z,181.70
2023-02-22T03:09:52.616Z,196.57
2023-02-22T03:13:11.090Z,182.40
2023-02-22T03:16:03.244Z,199.98
2023-02-22T03:18:43.184Z,207.20
2023-02-22T03:21:30.495Z,203.10
2023-02-22T03:24:09.999Z,208.70
2023-02-22T03:26:53.970Z,215.98
2023-02-22T03:29:26.293Z,209.93
2023-02-22T03:32:01.412Z,214.18
2023-02-22T03:34:35.988Z,212.52
2023-02-22T03:37:40.733Z,211.27
2023-02-22T03:40:16.874Z,207.68
2023-02-22T03:42:55.604Z,208.00
2023-02-22T03:45:35.833Z,214.88
2023-02-22T03:48:29.216Z,209.85
2023-02-22T03:51:01.399Z,217.82
2023-02-22T03:53:45.600Z,201.60
2023-02-22T03:56:23.008Z,213.68
2023-02-22T03:58:59.774Z,195.68
2023-02-22T04:02:00.577Z,203.68
2023-02-22T04:04:22.307Z,198.35
2023-02-22T04:06:49.880Z,208.00
2023-02-22T04:09:22.793Z,208.50
2023-02-22T04:11:51.309Z,200.55
2023-02-22T04:14:24.072Z,222.32
2023-02-22T04:16:58.372Z,200.90
2023-02-22T04:19:25.007Z,203.90
2023-02-22T04:21:51.710Z,209.65
2023-02-22T04:24:18.353Z,213.50
2023-02-22T04:26:45.101Z,203.05
2023-02-22T04:29:11.697Z,201.27
2023-02-22T04:31:39.641Z,212.27
2023-02-22T04:34:06.608Z,213.43
2023-02-22T04:36:38.950Z,205.40
2023-02-22T04:39:05.594Z,195.40
2023-02-22T04:41:35.467Z,218.95
2023-02-22T04:44:02.456Z,209.55
2023-02-22T04:46:29.301Z,221.18
2023-02-22T04:49:10.910Z,219.68
2023-02-22T04:51:42.689Z,227.38
2023-02-22T04:54:13.111Z,218.57
2023-02-22T04:56:43.378Z,222.20
2023-02-22T04:59:21.094Z,218.02
2023-02-22T05:01:55.759Z,220.35
2023-02-22T05:04:30.972Z,211.75
2023-02-22T05:07:08.599Z,208.70
2023-02-22T05:09:38.065Z,208.88
2023-02-22T05:12:12.520Z,213.98
2023-02-22T05:14:43.838Z,224.77
2023-02-22T05:17:21.006Z,209.70
2023-02-22T05:19:51.363Z,220.38
2023-02-22T05:22:27.196Z,220.65
2023-02-22T05:25:03.157Z,208.93
2023-02-22T05:27:29.705Z,209.30
2023-02-22T05:29:56.521Z,207.70
2023-02-22T05:32:23.114Z,224.57
2023-02-22T05:34:58.417Z,221.63
2023-02-22T05:37:34.332Z,217.23
2023-02-22T05:40:01.186Z,216.75
2023-02-22T05:42:30.818Z,212.80
2023-02-22T05:45:02.447Z,219.15
2023-02-22T05:47:29.608Z,195.80
2023-02-22T05:50:00.809Z,223.98
2023-02-22T05:52:31.616Z,209.82
2023-02-22T05:54:58.773Z,222.63
2023-02-22T05:57:32.166Z,209.98
2023-02-22T06:00:00.880Z,199.65
2023-02-22T06:02:27.481Z,186.98
2023-02-22T06:04:57.048Z,214.60
2023-02-22T06:07:23.621Z,227.27
2023-02-22T06:09:50.178Z,226.75
2023-02-22T06:12:25.217Z,213.68
2023-02-22T06:14:51.699Z,226.57
2023-02-22T06:17:20.510Z,200.23
2023-02-22T06:19:51.571Z,230.60
2023-02-22T06:22:25.072Z,217.13
2023-02-22T06:24:55.186Z,217.13
2023-02-22T06:27:30.954Z,214.25
2023-02-22T06:29:57.584Z,213.65
2023-02-22T06:32:27.805Z,216.73
2023-02-22T06:34:54.744Z,233.90
2023-02-22T06:37:21.672Z,231.95
2023-02-22T06:39:48.806Z,213.50
2023-02-22T06:42:15.592Z,232.13
2023-02-22T06:44:45.170Z,213.77
2023-02-22T06:47:11.858Z,190.07
2023-02-22T06:49:40.385Z,214.95
2023-02-22T06:52:08.269Z,223.98
2023-02-22T06:54:45.052Z,218.48
2023-02-22T06:57:17.221Z,203.98
2023-02-22T06:59:45.846Z,205.45
2023-02-22T07:02:14.709Z,205.07
2023-02-22T07:04:46.355Z,213.05
2023-02-22T07:07:12.975Z,215.05
2023-02-22T07:09:41.707Z,199.45
2023-02-22T07:12:23.244Z,212.32
2023-02-22T07:14:58.815Z,203.52
2023-02-22T07:17:28.409Z,210.90
2023-02-22T07:20:02.642Z,200.93
2023-02-22T07:22:39.022Z,215.98
2023-02-22T07:25:11.537Z,198.77
2023-02-22T07:27:47.197Z,209.15
2023-02-22T07:30:37.670Z,208.23
2023-02-22T07:33:09.978Z,205.40
2023-02-22T07:35:39.238Z,201.77
2023-02-22T07:38:13.761Z,210.98
2023-02-22T07:40:47.234Z,207.10
2023-02-22T07:43:17.739Z,202.32
2023-02-22T07:45:48.524Z,199.02
2023-02-22T07:48:18.288Z,189.82
2023-02-22T07:50:45.402Z,190.38
2023-02-22T07:56:11.592Z,200.98
2023-02-22T07:58:38.637Z,195.73
2023-02-22T08:01:10.260Z,210.38
2023-02-22T08:03:38.195Z,190.85
2023-02-22T08:06:08.335Z,206.60
2023-02-22T08:08:35.413Z,177.45
2023-02-22T08:11:02.622Z,220.55
2023-02-22T08:13:30.060Z,215.70
2023-02-22T08:15:56.789Z,199.30
2023-02-22T08:18:32.754Z,205.68
2023-02-22T08:21:09.462Z,217.73
2023-02-22T08:23:42.207Z,221.63
2023-02-22T08:26:10.992Z,203.65
2023-02-22T08:28:51.845Z,225.13
2023-02-22T08:31:30.888Z,226.43
2023-02-22T08:33:58.110Z,242.90
2023-02-22T08:36:27.279Z,213.60
2023-02-22T08:38:55.415Z,219.55
2023-02-22T08:41:30.113Z,218.05
2023-02-22T08:43:56.745Z,234.55
2023-02-22T08:46:31.236Z,207.40
2023-02-22T08:48:57.766Z,222.75
2023-02-22T08:51:27.682Z,220.40
2023-02-22T08:53:54.928Z,224.68
2023-02-22T08:56:23.827Z,186.60
2023-02-22T08:58:50.608Z,208.80
2023-02-22T09:01:24.807Z,232.05
2023-02-22T09:03:59.458Z,208.07
2023-02-22T09:06:33.091Z,227.80
2023-02-22T09:09:06.869Z,233.55
2023-02-22T09:11:41.821Z,214.65
2023-02-22T09:14:14.536Z,243.18
2023-02-22T09:16:50.057Z,207.55
2023-02-22T09:19:18.166Z,213.77
2023-02-22T09:22:04.091Z,209.98
2023-02-22T09:24:38.419Z,191.57
2023-02-22T09:27:14.954Z,219.25
2023-02-22T09:29:41.847Z,211.70
2023-02-22T09:32:08.687Z,196.77
2023-02-22T09:34:43.723Z,186.13
2023-02-22T09:37:11.932Z,188.65
2023-02-22T09:39:42.116Z,191.93
2023-02-22T09:42:13.629Z,211.35
2023-02-22T09:44:55.533Z,197.68
2023-02-22T09:47:48.918Z,188.63
2023-02-22T09:50:29.334Z,180.85
2023-02-22T09:53:06.072Z,208.93
2023-02-22T09:56:13.265Z,208.77
2023-02-22T09:58:45.934Z,217.15
2023-02-22T10:01:52.731Z,212.68
2023-02-22T10:04:34.976Z,221.80
2023-02-22T10:07:26.365Z,211.68
2023-02-22T10:10:06.752Z,211.02
2023-02-22T10:12:58.108Z,197.05
2023-02-22T10:15:49.057Z,213.67
2023-02-22T10:18:44.703Z,200.65
2023-02-22T10:21:29.383Z,210.40
2023-02-22T10:24:48.164Z,208.07
2023-02-22T10:27:32.167Z,191.70
2023-02-22T10:30:23.418Z,194.82
2023-02-22T10:33:32.748Z,212.23
2023-02-22T10:36:23.041Z,209.35
2023-02-22T10:38:55.259Z,216.90
2023-02-22T10:41:28.511Z,217.52
2023-02-22T10:44:08.897Z,223.27
2023-02-22T10:46:39.880Z,217.45
2023-02-22T10:49:09.784Z,208.70
2023-02-22T10:51:48.202Z,197.48
2023-02-22T10:54:21.331Z,221.93
2023-02-22T10:56:58.047Z,225.00
2023-02-22T10:59:33.664Z,213.63
2023-02-22T11:02:33.910Z,215.27
2023-02-22T11:05:04.452Z,203.20
2023-02-22T11:07:40.785Z,209.93
2023-02-22T11:10:14.491Z,200.60
2023-02-22T11:12:58.144Z,214.75
2023-02-22T11:15:32.070Z,217.10
2023-02-22T11:18:10.539Z,191.73
2023-02-22T11:20:40.041Z,194.15
2023-02-22T11:23:13.819Z,191.52
2023-02-22T11:25:42.714Z,202.35
2023-02-22T11:28:31.072Z,191.02
2023-02-22T11:31:18.873Z,196.30
2023-02-22T11:34:29.473Z,202.52
2023-02-22T11:37:36.697Z,183.20
2023-02-22T11:40:35.686Z,173.40
2023-02-22T11:43:19.977Z,197.02
2023-02-22T11:46:26.289Z,191.48
2023-02-22T11:49:09.748Z,189.40
2023-02-22T11:52:13.826Z,202.35
2023-02-22T11:54:54.278Z,198.02
2023-02-22T11:57:41.186Z,207.38
2023-02-22T12:00:32.944Z,196.95
2023-02-22T12:03:23.422Z,206.75
2023-02-22T12:06:08.369Z,229.88
2023-02-22T12:09:02.887Z,214.73
2023-02-22T12:11:50.909Z,224.80
2023-02-22T12:14:36.564Z,225.05
2023-02-22T12:17:23.597Z,197.90
2023-02-22T12:19:56.812Z,197.68
2023-02-22T12:22:39.226Z,214.43
2023-02-22T12:25:32.134Z,218.20
2023-02-22T12:28:24.301Z,215.90
2023-02-22T12:31:18.758Z,204.43
2023-02-22T12:34:08.084Z,213.38
2023-02-22T12:36:57.131Z,215.05
2023-02-22T12:39:40.929Z,213.73
2023-02-22T12:42:16.968Z,241.02
2023-02-22T12:45:05.090Z,226.38
2023-02-22T12:47:51.129Z,237.23
2023-02-22T12:50:44.833Z,207.65
2023-02-22T12:53:26.884Z,213.10
2023-02-22T12:56:30.924Z,206.07
2023-02-22T12:59:23.178Z,214.52
2023-02-22T13:02:05.033Z,214.18
2023-02-22T13:04:37.034Z,224.15
2023-02-22T13:07:35.857Z,218.93
2023-02-22T13:10:41.704Z,232.18
2023-02-22T13:13:45.446Z,212.75
2023-02-22T13:16:28.093Z,232.77
2023-02-22T13:19:28.396Z,237.43
2023-02-22T13:22:30.561Z,208.80
2023-02-22T13:25:35.845Z,219.25
2023-02-22T13:28:31.334Z,227.82
2023-02-22T13:31:07.427Z,214.95
2023-02-22T13:33:51.674Z,204.23
2023-02-22T13:36:38.762Z,203.90
2023-02-22T13:39:39.393Z,179.32
2023-02-22T13:42:48.896Z,175.63
2023-02-22T13:46:08.466Z,200.40
2023-02-22T13:52:13.036Z,203.65
2023-02-22T13:54:52.689Z,178.52
2023-02-22T13:57:38.936Z,200.48
2023-02-22T14:00:17.489Z,181.07
2023-02-22T14:03:34.359Z,168.88
2023-02-22T14:06:01.494Z,195.55
2023-02-22T14:08:28.101Z,211.85
2023-02-22T14:11:04.570Z,193.13
2023-02-22T14:14:12.268Z,169.07
2023-02-22T14:17:22.161Z,188.13
2023-02-22T14:20:04.459Z,209.50
2023-02-22T14:22:31.178Z,201.02
2023-02-22T14:25:01.134Z,194.10
2023-02-22T14:27:40.196Z,204.30
2023-02-22T14:30:30.974Z,202.38
2023-02-22T14:32:57.948Z,204.18
2023-02-22T14:35:49.908Z,193.95
2023-02-22T14:38:22.105Z,214.48
2023-02-22T14:43:25.873Z,198.43
2023-02-22T14:46:13.101Z,180.98
2023-02-22T14:48:51.466Z,174.52
2023-02-22T14:51:53.320Z,182.00
2023-02-22T14:54:36.905Z,202.63
2023-02-22T14:57:18.516Z,191.27
2023-02-22T14:59:56.723Z,199.52
2023-02-22T15:02:26.169Z,194.15
2023-02-22T15:04:59.450Z,195.52
2023-02-22T15:07:30.619Z,188.65
2023-02-22T15:10:28.208Z,216.32
2023-02-22T15:13:19.617Z,206.18
2023-02-22T15:16:13.833Z,218.32
2023-02-22T15:18:48.891Z,206.35
2023-02-22T15:21:30.273Z,192.77
2023-02-22T15:24:04.840Z,233.15
2023-02-22T15:26:37.305Z,224.50
2023-02-22T15:29:20.958Z,231.10
2023-02-22T15:31:53.092Z,252.40
2023-02-22T15:34:30.506Z,242.18
2023-02-22T15:37:08.140Z,241.35
2023-02-22T15:39:34.886Z,228.25
2023-02-22T15:42:20.957Z,214.35
2023-02-22T15:44:49.292Z,208.20
2023-02-22T15:47:35.015Z,213.73
2023-02-22T15:50:26.627Z,202.05
2023-02-22T15:53:02.299Z,210.65
2023-02-22T15:55:36.287Z,234.82
2023-02-22T15:58:26.349Z,209.70
2023-02-22T16:01:25.577Z,213.20
2023-02-22T16:04:00.551Z,207.27
2023-02-22T16:06:41.666Z,194.20
2023-02-22T16:09:25.601Z,218.23
2023-02-22T16:12:17.451Z,201.52
2023-02-22T16:14:45.072Z,206.13
2023-02-22T16:17:55.956Z,197.90
2023-02-22T16:20:32.653Z,203.80
2023-02-22T16:22:59.371Z,187.55
2023-02-22T16:25:39.799Z,205.32
2023-02-22T16:31:25.239Z,188.35
2023-02-22T16:33:56.082Z,188.18
2023-02-22T16:39:38.399Z,206.73
2023-02-22T16:42:31.446Z,214.00
2023-02-22T16:47:57.337Z,187.43
2023-02-22T16:50:32.749Z,207.73
2023-02-22T16:53:12.155Z,190.30
2023-02-22T16:56:19.906Z,211.00
2023-02-22T16:59:04.221Z,188.57
2023-02-22T17:01:39.618Z,195.27
2023-02-22T17:04:24.246Z,216.90
2023-02-22T17:06:54.974Z,220.88
2023-02-22T17:09:30.622Z,209.65
2023-02-22T17:12:05.414Z,228.82
2023-02-22T17:14:44.486Z,193.80
2023-02-22T17:17:17.017Z,215.23
2023-02-22T17:22:18.914Z,185.23
2023-02-22T17:24:51.764Z,210.55
2023-02-22T17:27:21.363Z,220.48
2023-02-22T17:29:51.755Z,207.38
2023-02-22T17:32:20.529Z,212.15
2023-02-22T17:34:47.204Z,213.02
2023-02-22T17:37:15.210Z,195.02
2023-02-22T17:39:41.871Z,213.27
2023-02-22T17:42:12.049Z,205.52
2023-02-22T17:44:40.107Z,195.32
2023-02-22T17:47:10.331Z,194.85
2023-02-22T17:49:46.593Z,202.77
2023-02-22T17:52:20.580Z,203.68
2023-02-22T17:55:02.023Z,224.40
2023-02-22T17:57:36.675Z,184.55
2023-02-22T18:00:12.742Z,196.70
2023-02-22T18:02:51.291Z,208.45
2023-02-22T18:05:26.671Z,197.85
2023-02-22T18:07:56.204Z,179.30
2023-02-22T18:10:23.206Z,174.35
2023-02-22T18:12:57.922Z,218.07
2023-02-22T18:15:58.774Z,195.00
2023-02-22T18:18:39.917Z,190.05
2023-02-22T18:21:22.393Z,219.35
2023-02-22T18:23:50.151Z,210.23
2023-02-22T18:26:27.608Z,224.65
2023-02-22T18:29:02.822Z,215.25
2023-02-22T18:31:29.684Z,209.93
2023-02-22T18:33:57.644Z,227.02
2023-02-22T18:36:25.812Z,196.45
2023-02-22T18:38:54.280Z,182.13
2023-02-22T18:41:25.855Z,202.13
2023-02-22T18:43:57.819Z,214.80
2023-02-22T18:46:32.196Z,224.07
2023-02-22T18:48:59.888Z,184.77
2023-02-22T18:51:34.525Z,209.70
2023-02-22T18:54:12.377Z,206.82
2023-02-22T18:56:40.367Z,232.85
2023-02-22T18:59:19.439Z,224.20
2023-02-22T19:01:49.183Z,213.80
2023-02-22T19:04:18.305Z,237.65
2023-02-22T19:07:06.365Z,233.80
2023-02-22T19:09:37.614Z,218.77
2023-02-22T19:12:04.902Z,224.77
2023-02-22T19:14:31.459Z,227.32
2023-02-22T19:17:02.754Z,220.95
2023-02-22T19:19:32.636Z,218.25
2023-02-22T19:22:01.584Z,211.25
2023-02-22T19:24:28.860Z,215.18
2023-02-22T19:27:04.487Z,225.05
2023-02-22T19:29:33.569Z,215.32
2023-02-22T19:32:00.989Z,205.55
2023-02-22T19:34:33.866Z,216.88
2023-02-22T19:37:10.302Z,216.38
2023-02-22T19:39:38.926Z,231.77
2023-02-22T19:42:11.266Z,206.88
2023-02-22T19:44:38.126Z,197.48
2023-02-22T19:47:10.100Z,216.10
2023-02-22T19:49:44.620Z,219.38
2023-02-22T19:52:11.210Z,221.52
2023-02-22T19:54:38.232Z,222.82
2023-02-22T19:57:11.823Z,200.38
2023-02-22T19:59:43.782Z,191.23
2023-02-22T20:02:15.082Z,194.25
2023-02-22T20:04:58.245Z,184.00
2023-02-22T20:07:52.942Z,206.13
2023-02-22T20:10:28.744Z,224.13
2023-02-22T20:12:55.492Z,210.95
2023-02-22T20:15:47.003Z,216.70
2023-02-22T20:18:20.303Z,227.02
2023-02-22T20:23:25.566Z,222.10
2023-02-22T20:26:03.100Z,230.88
2023-02-22T20:28:45.582Z,232.68
2023-02-22T20:31:26.107Z,215.30
2023-02-22T20:33:57.991Z,198.48
2023-02-22T20:39:15.054Z,188.13
2023-02-22T20:41:45.175Z,237.57
2023-02-22T20:44:22.422Z,232.07
2023-02-22T20:46:55.557Z,225.57
2023-02-22T20:49:30.088Z,224.73
2023-02-22T20:51:56.863Z,241.50
2023-02-22T20:54:25.226Z,237.73
2023-02-22T20:56:53.595Z,224.85
2023-02-22T21:02:54.122Z,204.70
2023-02-22T21:05:27.855Z,216.90
2023-02-22T21:08:40.645Z,216.73
2023-02-22T21:11:30.839Z,240.15
2023-02-22T21:13:58.237Z,230.05
2023-02-22T21:16:41.353Z,238.02
2023-02-22T21:19:10.785Z,241.30
2023-02-22T21:21:49.922Z,235.15
2023-02-22T21:24:19.791Z,246.50
2023-02-22T21:27:18.383Z,227.40
2023-02-22T21:29:59.898Z,228.77
2023-02-22T21:32:26.802Z,217.30
2023-02-22T21:35:01.546Z,238.40
2023-02-22T21:37:32.720Z,228.18
2023-02-22T21:40:04.765Z,243.32
2023-02-22T21:42:49.945Z,237.40
2023-02-22T21:45:27.037Z,229.52
2023-02-22T21:48:02.272Z,228.82
2023-02-22T21:50:44.451Z,230.15
2023-02-22T21:53:14.272Z,242.68
2023-02-22T21:55:52.114Z,227.40
2023-02-22T21:58:39.941Z,232.63
2023-02-22T22:01:29.025Z,226.52
2023-02-22T22:04:24.768Z,234.60
2023-02-22T22:09:45.042Z,237.55
2023-02-22T22:12:12.582Z,227.70
2023-02-22T22:14:40.404Z,223.13
2023-02-22T22:17:14.293Z,231.13
2023-02-22T22:20:11.056Z,235.45
2023-02-22T22:22:49.375Z,230.35
2023-02-22T22:25:53.391Z,227.32
2023-02-22T22:28:31.261Z,234.15
2023-02-22T22:31:00.723Z,223.52
2023-02-22T22:33:32.723Z,232.82
2023-02-22T22:38:58.056Z,236.45
2023-02-22T22:41:28.115Z,238.27
2023-02-22T22:43:57.567Z,240.60
2023-02-22T22:46:31.636Z,231.35
2023-02-22T22:48:58.387Z,237.30
2023-02-22T22:51:24.898Z,243.20
2023-02-22T22:53:52.022Z,248.13
2023-02-22T22:56:38.530Z,234.43
2023-02-22T22:59:15.768Z,219.07
2023-02-22T23:01:46.397Z,231.25
2023-02-22T23:04:19.677Z,230.07
2023-02-22T23:06:52.049Z,239.75
2023-02-22T23:09:34.774Z,234.13
2023-02-22T23:12:18.281Z,224.95
2023-02-22T23:14:47.305Z,234.75
2023-02-22T23:17:45.332Z,234.90
2023-02-22T23:20:21.383Z,216.20
2023-02-22T23:22:49.102Z,225.25
2023-02-22T23:25:30.265Z,227.63
2023-02-22T23:27:57.843Z,226.43
2023-02-22T23:30:25.234Z,223.30
2023-02-22T23:33:18.861Z,220.05
2023-02-22T23:36:03.753Z,226.43
2023-02-22T23:38:35.001Z,222.90
2023-02-22T23:41:10.197Z,221.05
2023-02-22T23:43:40.440Z,216.77
2023-02-22T23:46:19.580Z,213.48
2023-02-22T23:49:01.692Z,213.93
2023-02-22T23:51:46.329Z,210.95
2023-02-22T23:54:21.201Z,219.27
2023-02-22T23:56:57.086Z,211.75
2023-02-22T23:59:29.822Z,220.95
